Terminal Aerodrome Forecast
Issued by NWS

Home | Current Version | Previous Version | Graphics & Text | Print | Product List | Glossary On
Versions: 1 2 3 4 5 6 7 8 9 10 11 12
104
FTUS43 KABR 242324
TAFPIR
TAF
KPIR 242324Z 2500/2524 32007KT P6SM SCT250
     FM251500 32011KT P6SM BKN200=

USA.gov is the U.S. government's official web portal to all federal, state and local government web resources and services.